createdAt,value
2018-06-13T00:00:03.199Z,0
2018-06-13T00:00:43.614Z,0
2018-06-13T00:01:23.937Z,0
2018-06-13T00:02:04.408Z,0
2018-06-13T00:02:44.793Z,0
2018-06-13T00:05:13.777Z,0
2018-06-13T00:05:55.211Z,0
2018-06-13T00:06:36.739Z,0
2018-06-13T00:07:17.199Z,0
2018-06-13T00:07:57.528Z,0
2018-06-13T00:08:38.075Z,0
2018-06-13T00:09:18.618Z,0
2018-06-13T00:10:01.268Z,0
2018-06-13T00:10:40.558Z,0
2018-06-13T00:11:21.016Z,0
2018-06-13T00:12:02.839Z,0
2018-06-13T00:12:43.189Z,0
2018-06-13T00:13:23.535Z,0
2018-06-13T00:14:04.059Z,0
2018-06-13T00:14:46.513Z,0
2018-06-13T00:15:26.954Z,0
2018-06-13T00:16:08.500Z,0
2018-06-13T00:16:48.858Z,0
2018-06-13T00:17:29.402Z,0
2018-06-13T00:18:09.670Z,0
2018-06-13T00:18:50.816Z,0
2018-06-13T00:19:31.414Z,0
2018-06-13T00:20:11.685Z,0
2018-06-13T00:20:52.009Z,0
2018-06-13T00:21:32.792Z,0
2018-06-13T00:22:13.034Z,0
2018-06-13T00:22:53.373Z,0
2018-06-13T00:23:35.927Z,0
2018-06-13T00:24:16.777Z,0
2018-06-13T00:24:56.691Z,0
2018-06-13T00:25:37.114Z,0
2018-06-13T00:26:17.655Z,0
2018-06-13T00:26:58.043Z,0
2018-06-13T00:27:38.609Z,0
2018-06-13T00:28:18.896Z,0
2018-06-13T00:28:59.238Z,0
2018-06-13T00:29:39.691Z,0
2018-06-13T00:30:21.388Z,0
2018-06-13T00:31:01.477Z,0
2018-06-13T00:31:43.424Z,0
2018-06-13T00:32:23.827Z,0
2018-06-13T00:33:04.257Z,0
2018-06-13T00:33:44.766Z,0
2018-06-13T00:34:25.134Z,0
2018-06-13T00:35:05.600Z,0
2018-06-13T00:35:46.590Z,0
2018-06-13T00:36:27.557Z,0
2018-06-13T00:37:08.140Z,0
2018-06-13T00:37:48.683Z,0
2018-06-13T00:38:29.063Z,0
2018-06-13T00:39:09.550Z,0
2018-06-13T00:39:50.008Z,0
2018-06-13T00:40:30.643Z,0
2018-06-13T00:41:11.347Z,0
2018-06-13T00:41:51.441Z,0
2018-06-13T00:42:31.909Z,0
2018-06-13T00:43:12.323Z,0
2018-06-13T00:43:52.830Z,0
2018-06-13T00:44:33.081Z,0
2018-06-13T00:45:14.008Z,0
2018-06-13T00:45:54.718Z,0
2018-06-13T00:46:35.185Z,0
2018-06-13T00:47:15.690Z,0
2018-06-13T00:47:56.595Z,0
2018-06-13T00:48:36.880Z,0
2018-06-13T00:49:17.393Z,0
2018-06-13T00:49:57.812Z,0
2018-06-13T00:50:38.262Z,0
2018-06-13T00:51:18.620Z,0
2018-06-13T00:51:58.972Z,0
2018-06-13T00:52:40.227Z,0
2018-06-13T00:53:19.994Z,0
2018-06-13T00:54:00.598Z,0
2018-06-13T00:54:42.602Z,0
2018-06-13T00:55:23.220Z,0
2018-06-13T00:56:03.299Z,0
2018-06-13T00:58:16.462Z,0
2018-06-13T00:58:56.884Z,0
2018-06-13T00:59:37.645Z,0
2018-06-13T01:00:18.039Z,0
2018-06-13T01:00:58.464Z,0
2018-06-13T01:01:38.847Z,0
2018-06-13T01:02:19.229Z,0
2018-06-13T01:02:59.667Z,0
2018-06-13T01:03:40.106Z,0
2018-06-13T01:04:20.512Z,0
2018-06-13T01:05:00.965Z,0
2018-06-13T01:05:41.300Z,0
2018-06-13T01:06:21.739Z,0
2018-06-13T01:07:02.056Z,0
2018-06-13T01:07:42.544Z,0
2018-06-13T01:08:22.933Z,0
2018-06-13T01:09:03.310Z,0
2018-06-13T01:09:43.775Z,0
2018-06-13T01:10:24.994Z,0
2018-06-13T01:11:05.310Z,0
2018-06-13T01:11:45.711Z,0
2018-06-13T01:12:26.114Z,0
2018-06-13T01:13:06.543Z,0
2018-06-13T01:13:46.896Z,0
2018-06-13T01:14:28.291Z,0
2018-06-13T01:15:08.701Z,0
2018-06-13T01:15:49.038Z,0
2018-06-13T01:16:29.437Z,0
2018-06-13T01:17:09.854Z,0
2018-06-13T01:17:50.344Z,0
2018-06-13T01:18:30.787Z,0
2018-06-13T01:19:13.380Z,0
2018-06-13T01:19:56.633Z,0
2018-06-13T01:20:37.063Z,0
2018-06-13T01:21:17.513Z,0
2018-06-13T01:21:57.881Z,0
2018-06-13T01:22:38.319Z,0
2018-06-13T01:23:18.680Z,0
2018-06-13T01:23:59.309Z,0
2018-06-13T01:24:40.041Z,0
2018-06-13T01:25:20.417Z,0
2018-06-13T01:26:02.429Z,0
2018-06-13T01:26:42.847Z,0
2018-06-13T01:27:24.096Z,0
2018-06-13T01:28:04.456Z,0
2018-06-13T01:28:44.974Z,0
2018-06-13T01:29:25.560Z,0
2018-06-13T01:30:05.904Z,0
2018-06-13T01:30:46.324Z,0
2018-06-13T01:31:26.672Z,0
2018-06-13T01:32:07.078Z,0
2018-06-13T01:32:47.509Z,0
2018-06-13T01:33:27.908Z,0
2018-06-13T01:34:08.411Z,0
2018-06-13T01:34:48.747Z,0
2018-06-13T01:35:30.011Z,0
2018-06-13T01:36:10.378Z,0
2018-06-13T01:36:50.962Z,0
2018-06-13T01:37:31.336Z,0
2018-06-13T01:38:11.699Z,0
2018-06-13T01:38:52.061Z,0
2018-06-13T01:39:32.473Z,0
2018-06-13T01:40:12.887Z,0
2018-06-13T01:40:53.279Z,0
2018-06-13T01:41:33.689Z,0
2018-06-13T01:42:14.064Z,0
2018-06-13T01:42:54.478Z,0
2018-06-13T01:43:34.849Z,0
2018-06-13T01:44:15.282Z,0
2018-06-13T01:44:55.650Z,0
2018-06-13T01:45:36.023Z,0
2018-06-13T01:46:16.436Z,0
2018-06-13T01:46:56.901Z,0
2018-06-13T01:47:37.307Z,0
2018-06-13T01:48:17.732Z,0
2018-06-13T01:48:58.047Z,0
2018-06-13T01:49:38.480Z,0
2018-06-13T01:50:18.885Z,0
2018-06-13T01:50:59.430Z,0
2018-06-13T01:51:39.794Z,0
2018-06-13T01:52:20.199Z,0
2018-06-13T01:53:00.624Z,0
2018-06-13T01:53:41.035Z,0
2018-06-13T01:54:21.475Z,0
2018-06-13T01:55:01.851Z,0
2018-06-13T01:55:42.283Z,0
2018-06-13T01:56:22.642Z,0
2018-06-13T01:57:04.558Z,0
2018-06-13T01:57:44.944Z,0
2018-06-13T01:58:25.356Z,0
2018-06-13T01:59:05.727Z,0
2018-06-13T01:59:46.162Z,0
2018-06-13T02:00:26.542Z,0
2018-06-13T02:01:06.925Z,0
2018-06-13T02:01:47.346Z,0
2018-06-13T02:02:27.715Z,0
2018-06-13T02:03:08.105Z,0
2018-06-13T02:03:53.121Z,0
2018-06-13T02:04:33.750Z,0
2018-06-13T02:05:16.203Z,0
2018-06-13T02:05:57.332Z,0
2018-06-13T02:06:39.123Z,0
2018-06-13T02:07:19.507Z,0
2018-06-13T02:08:02.650Z,0
2018-06-13T02:08:42.840Z,0
2018-06-13T02:09:23.249Z,0
2018-06-13T02:10:03.665Z,0
2018-06-13T02:10:44.173Z,0
2018-06-13T02:11:32.267Z,0
2018-06-13T02:12:11.242Z,0
2018-06-13T02:12:51.638Z,0
2018-06-13T02:13:32.066Z,0
2018-06-13T02:14:12.823Z,0
2018-06-13T02:14:52.925Z,0
2018-06-13T02:15:33.234Z,0
2018-06-13T02:16:20.751Z,0
2018-06-13T02:17:01.180Z,0
2018-06-13T02:17:41.634Z,0
2018-06-13T02:18:22.007Z,0
2018-06-13T02:19:02.365Z,0
2018-06-13T02:19:42.827Z,0
2018-06-13T02:20:23.190Z,0
2018-06-13T02:21:03.608Z,0
2018-06-13T02:21:43.980Z,0
2018-06-13T02:22:24.425Z,0
2018-06-13T02:23:04.781Z,0
2018-06-13T02:23:45.193Z,0
2018-06-13T02:24:25.595Z,0
2018-06-13T02:25:05.997Z,0
2018-06-13T02:25:46.372Z,0
2018-06-13T02:26:26.754Z,0
2018-06-13T02:27:07.189Z,0
2018-06-13T02:27:47.629Z,0
2018-06-13T02:28:28.079Z,0
2018-06-13T02:29:08.434Z,0
2018-06-13T02:29:48.829Z,0
2018-06-13T02:30:30.783Z,0
2018-06-13T02:31:11.687Z,0
2018-06-13T02:31:52.140Z,0
2018-06-13T02:32:33.052Z,0
2018-06-13T02:33:14.880Z,0
2018-06-13T02:33:55.071Z,0
2018-06-13T02:34:35.715Z,0
2018-06-13T02:35:16.107Z,0
2018-06-13T02:35:56.511Z,0
2018-06-13T02:36:38.176Z,0
2018-06-13T02:37:21.169Z,0
2018-06-13T02:38:01.005Z,0
2018-06-13T02:38:43.100Z,0
2018-06-13T02:39:24.500Z,0
2018-06-13T02:40:05.081Z,0
2018-06-13T02:40:45.906Z,0
2018-06-13T02:41:28.482Z,0
2018-06-13T02:42:08.799Z,0
2018-06-13T02:42:51.113Z,0
2018-06-13T02:43:31.518Z,0
2018-06-13T02:44:13.712Z,0
2018-06-13T02:44:56.076Z,0
2018-06-13T02:45:36.601Z,0
2018-06-13T02:46:16.981Z,0
2018-06-13T02:52:36.014Z,0
2018-06-13T02:53:16.440Z,0
2018-06-13T02:53:56.928Z,0
2018-06-13T02:54:37.230Z,0
2018-06-13T02:55:17.699Z,0
2018-06-13T02:55:58.074Z,0
2018-06-13T02:56:38.486Z,0
2018-06-13T02:57:19.188Z,0
2018-06-13T02:57:59.535Z,0
2018-06-13T02:58:39.890Z,0
2018-06-13T02:59:20.385Z,0
2018-06-13T03:00:00.870Z,0
2018-06-13T03:00:41.248Z,0
2018-06-13T03:01:21.698Z,0
2018-06-13T03:02:02.201Z,0
2018-06-13T03:02:42.810Z,0
2018-06-13T03:03:23.205Z,0
2018-06-13T03:04:03.711Z,0
2018-06-13T03:04:44.102Z,0
2018-06-13T03:05:24.634Z,0
2018-06-13T03:06:04.955Z,0
2018-06-13T03:06:45.263Z,0
2018-06-13T03:07:25.715Z,0
2018-06-13T03:08:06.225Z,0
2018-06-13T03:08:46.688Z,0
2018-06-13T03:09:27.380Z,0
2018-06-13T03:10:07.805Z,0
2018-06-13T03:10:48.277Z,0
2018-06-13T03:11:29.815Z,0
2018-06-13T03:12:10.203Z,0
2018-06-13T03:12:50.666Z,0
2018-06-13T03:13:31.101Z,0
2018-06-13T03:14:11.505Z,0
2018-06-13T03:14:51.910Z,0
2018-06-13T03:15:32.254Z,0
2018-06-13T03:16:13.978Z,0
2018-06-13T03:16:54.463Z,0
2018-06-13T03:17:34.989Z,0
2018-06-13T03:18:15.525Z,0
2018-06-13T03:18:55.922Z,0
2018-06-13T03:19:36.607Z,0
2018-06-13T03:20:17.073Z,0
2018-06-13T03:20:58.229Z,0
2018-06-13T03:21:38.600Z,0
2018-06-13T03:22:19.132Z,0
2018-06-13T03:22:59.527Z,0
2018-06-13T03:23:39.907Z,0
2018-06-13T03:24:20.462Z,0
2018-06-13T03:25:00.876Z,0
2018-06-13T03:25:41.268Z,0
2018-06-13T03:26:21.615Z,0
2018-06-13T03:28:51.527Z,0
2018-06-13T03:29:31.919Z,0
2018-06-13T03:30:12.340Z,0
2018-06-13T03:30:52.978Z,0
2018-06-13T03:31:34.090Z,0
2018-06-13T03:32:14.560Z,0
2018-06-13T03:32:54.918Z,0
2018-06-13T03:33:35.321Z,0
2018-06-13T03:35:54.910Z,0
2018-06-13T03:36:35.226Z,0
2018-06-13T03:37:15.909Z,0
2018-06-13T03:37:56.359Z,0
2018-06-13T03:38:36.753Z,0
2018-06-13T03:42:25.136Z,0
2018-06-13T03:43:05.532Z,0
2018-06-13T03:43:45.964Z,0
2018-06-13T03:44:27.203Z,0
2018-06-13T03:45:07.584Z,0
2018-06-13T03:45:48.050Z,0
2018-06-13T03:46:28.696Z,0
2018-06-13T03:47:09.116Z,0
2018-06-13T03:47:52.024Z,0
2018-06-13T03:48:33.195Z,0
2018-06-13T03:49:13.599Z,0
2018-06-13T03:49:53.944Z,0
2018-06-13T03:50:34.373Z,0
2018-06-13T03:51:14.889Z,0
2018-06-13T03:51:55.228Z,0
2018-06-13T03:52:35.658Z,0
2018-06-13T03:53:17.156Z,0
2018-06-13T03:53:57.439Z,0
2018-06-13T03:54:37.831Z,0
2018-06-13T03:55:19.014Z,0
2018-06-13T03:55:59.447Z,0
2018-06-13T03:56:39.915Z,0
2018-06-13T03:57:20.270Z,0
2018-06-13T03:58:00.709Z,0
2018-06-13T03:58:41.929Z,0
2018-06-13T03:59:22.285Z,0
2018-06-13T04:00:02.702Z,0
2018-06-13T04:00:43.343Z,0
2018-06-13T04:01:23.772Z,0
2018-06-13T04:02:04.207Z,0
2018-06-13T04:47:19.499Z,25
2018-06-13T04:47:59.818Z,25
2018-06-13T04:48:43.510Z,25
2018-06-13T04:49:24.058Z,30
2018-06-13T04:50:04.732Z,30
2018-06-13T04:50:51.402Z,35
2018-06-13T04:51:34.500Z,35
2018-06-13T04:52:15.468Z,35
2018-06-13T04:53:00.605Z,35
2018-06-13T04:53:42.276Z,35
2018-06-13T04:54:24.042Z,35
2018-06-13T04:55:06.157Z,35
2018-06-13T04:55:49.327Z,35
2018-06-13T04:56:31.255Z,55
2018-06-13T04:57:12.389Z,30
2018-06-13T04:57:53.654Z,30
2018-06-13T04:58:36.783Z,30
2018-06-13T04:59:17.222Z,25
2018-06-13T04:59:57.561Z,25
2018-06-13T05:00:37.943Z,25
2018-06-13T05:03:01.088Z,25
2018-06-13T05:03:41.600Z,30
2018-06-13T05:04:21.991Z,30
2018-06-13T05:05:02.699Z,30
2018-06-13T05:05:43.263Z,30
2018-06-13T05:06:23.612Z,25
2018-06-13T05:07:04.359Z,25
2018-06-13T05:07:44.693Z,25
2018-06-13T05:08:25.605Z,25
2018-06-13T05:09:06.228Z,25
2018-06-13T05:09:46.685Z,25
2018-06-13T05:10:27.148Z,25
2018-06-13T05:11:07.547Z,25
2018-06-13T05:11:48.357Z,25
2018-06-13T05:12:29.606Z,20
2018-06-13T05:13:09.301Z,20
2018-06-13T05:13:50.143Z,20
2018-06-13T05:14:30.779Z,25
2018-06-13T05:15:13.061Z,25
2018-06-13T05:15:53.559Z,25
2018-06-13T05:16:33.921Z,25
2018-06-13T05:17:15.079Z,25
2018-06-13T05:17:55.908Z,25
2018-06-13T05:18:36.375Z,30
2018-06-13T05:19:16.837Z,30
2018-06-13T05:19:57.216Z,25
2018-06-13T05:20:38.152Z,25
2018-06-13T05:21:18.167Z,25
2018-06-13T05:21:58.685Z,30
2018-06-13T05:22:40.076Z,30
2018-06-13T05:23:20.664Z,30
2018-06-13T05:24:01.086Z,30
2018-06-13T05:24:44.623Z,35
2018-06-13T05:25:25.001Z,35
2018-06-13T05:26:05.994Z,35
2018-06-13T05:26:46.411Z,35
2018-06-13T05:27:27.164Z,30
2018-06-13T05:28:07.629Z,30
2018-06-13T05:28:49.550Z,30
2018-06-13T05:29:31.833Z,30
2018-06-13T05:30:12.350Z,30
2018-06-13T05:30:53.267Z,30
2018-06-13T05:31:34.397Z,30
2018-06-13T05:32:15.774Z,30
2018-06-13T05:32:56.345Z,30
2018-06-13T05:33:36.781Z,35
2018-06-13T05:34:17.226Z,35
2018-06-13T05:34:57.750Z,30
2018-06-13T05:35:39.235Z,30
2018-06-13T05:36:19.656Z,25
2018-06-13T05:36:59.940Z,25
2018-06-13T05:37:40.777Z,25
2018-06-13T05:38:21.148Z,25
2018-06-13T05:39:05.739Z,20
2018-06-13T05:39:46.405Z,20
2018-06-13T05:40:27.007Z,20
2018-06-13T05:41:08.164Z,20
2018-06-13T05:41:48.609Z,25
2018-06-13T05:42:31.713Z,25
2018-06-13T05:43:12.422Z,25
2018-06-13T05:43:53.796Z,25
2018-06-13T05:44:34.100Z,25
2018-06-13T05:45:14.587Z,25
2018-06-13T05:45:55.808Z,20
2018-06-13T05:46:35.578Z,20
2018-06-13T05:47:16.273Z,20
2018-06-13T05:47:57.364Z,25
2018-06-13T05:48:38.214Z,25
2018-06-13T05:49:18.609Z,25
2018-06-13T05:49:59.346Z,25
2018-06-13T05:50:39.900Z,25
2018-06-13T05:51:20.255Z,25
2018-06-13T05:52:00.919Z,25
2018-06-13T05:52:41.410Z,25
2018-06-13T05:53:21.997Z,25
2018-06-13T05:54:02.807Z,25
2018-06-13T05:54:43.128Z,25
2018-06-13T05:55:23.630Z,25
2018-06-13T05:56:04.021Z,25
2018-06-13T05:56:45.743Z,25
2018-06-13T05:57:26.507Z,25
2018-06-13T05:58:07.407Z,25
2018-06-13T05:58:47.931Z,25
2018-06-13T05:59:28.919Z,25
2018-06-13T06:00:09.506Z,25
2018-06-13T06:00:50.061Z,25
2018-06-13T06:01:30.605Z,25
2018-06-13T06:02:11.176Z,25
2018-06-13T06:02:52.065Z,30
2018-06-13T06:03:34.242Z,30
2018-06-13T06:04:15.141Z,30
2018-06-13T06:04:55.629Z,30
2018-06-13T06:05:36.218Z,30
2018-06-13T06:06:17.551Z,30
2018-06-13T06:06:57.878Z,30
2018-06-13T06:07:38.679Z,30
2018-06-13T06:08:20.035Z,30
2018-06-13T06:09:00.612Z,30
2018-06-13T06:09:41.360Z,30
2018-06-13T06:10:22.916Z,30
2018-06-13T06:11:03.092Z,30
2018-06-13T06:11:45.637Z,30
2018-06-13T06:12:26.118Z,25
2018-06-13T06:13:07.120Z,25
2018-06-13T06:13:47.595Z,25
2018-06-13T06:14:27.840Z,25
2018-06-13T06:15:08.223Z,25
2018-06-13T06:15:49.526Z,25
2018-06-13T06:16:30.024Z,30
2018-06-13T06:17:13.694Z,25
2018-06-13T06:17:54.425Z,25
2018-06-13T06:18:35.428Z,25
2018-06-13T06:19:17.182Z,30
2018-06-13T06:19:59.700Z,25
2018-06-13T06:20:40.366Z,25
2018-06-13T06:21:21.021Z,30
2018-06-13T06:22:01.867Z,30
2018-06-13T06:22:45.630Z,30
2018-06-13T06:23:26.334Z,30
2018-06-13T06:24:06.800Z,30
2018-06-13T06:24:47.271Z,30
2018-06-13T06:25:27.726Z,30
2018-06-13T06:26:08.247Z,30
2018-06-13T06:26:48.791Z,30
2018-06-13T06:27:29.694Z,30
2018-06-13T06:28:11.718Z,35
2018-06-13T06:28:52.768Z,35
2018-06-13T06:29:33.955Z,35
2018-06-13T06:30:15.065Z,35
2018-06-13T06:30:58.547Z,40
2018-06-13T06:31:40.574Z,40
2018-06-13T06:32:20.682Z,40
2018-06-13T06:33:01.897Z,40
2018-06-13T06:33:42.470Z,40
2018-06-13T06:34:25.317Z,45
2018-06-13T06:35:06.184Z,45
2018-06-13T06:35:46.374Z,45
2018-06-13T06:36:27.660Z,45
2018-06-13T06:37:09.105Z,40
2018-06-13T06:37:49.293Z,40
2018-06-13T06:38:30.163Z,40
2018-06-13T06:39:14.679Z,40
2018-06-13T06:39:55.984Z,45
2018-06-13T06:40:36.370Z,45
2018-06-13T06:41:17.063Z,50
2018-06-13T06:41:58.902Z,55
2018-06-13T06:42:40.280Z,65
2018-06-13T06:45:26.882Z,55
2018-06-13T06:46:09.318Z,55
2018-06-13T06:46:53.506Z,50
2018-06-13T06:47:35.649Z,50
2018-06-13T06:48:22.164Z,50
2018-06-13T06:49:05.449Z,50
2018-06-13T06:49:47.762Z,45
2018-06-13T06:50:36.723Z,45
2018-06-13T06:51:21.709Z,40
2018-06-13T06:52:07.149Z,40
2018-06-13T06:52:51.090Z,40
2018-06-13T06:53:33.885Z,40
2018-06-13T06:54:18.981Z,40
2018-06-13T06:55:03.048Z,45
2018-06-13T07:14:35.345Z,40
2018-06-13T07:48:41.411Z,40
2018-06-13T07:49:48.217Z,40
2018-06-13T07:50:41.928Z,40
2018-06-13T08:02:36.494Z,35
2018-06-13T08:03:17.168Z,35
2018-06-13T08:03:58.541Z,30
2018-06-13T08:04:39.047Z,30
2018-06-13T08:05:19.823Z,30
2018-06-13T08:06:00.500Z,30
2018-06-13T08:06:41.238Z,25
2018-06-13T08:07:22.712Z,25
2018-06-13T08:08:05.146Z,25
2018-06-13T08:08:46.884Z,25
2018-06-13T08:09:27.175Z,25
2018-06-13T08:10:07.953Z,25
2018-06-13T08:10:48.439Z,25
2018-06-13T08:11:29.580Z,20
2018-06-13T08:12:09.645Z,20
2018-06-13T08:12:50.292Z,20
2018-06-13T08:13:30.955Z,20
2018-06-13T08:14:11.443Z,20
2018-06-13T08:14:52.062Z,20
2018-06-13T08:15:37.667Z,20
2018-06-13T08:16:20.850Z,20
2018-06-13T08:17:01.927Z,20
2018-06-13T08:20:53.291Z,20
2018-06-13T08:21:34.330Z,20
2018-06-13T08:22:14.782Z,20
2018-06-13T08:22:55.620Z,20
2018-06-13T08:23:37.027Z,25
2018-06-13T08:24:19.810Z,25
2018-06-13T08:24:59.600Z,25
2018-06-13T08:25:40.289Z,25
2018-06-13T08:26:21.334Z,30
2018-06-13T08:27:16.906Z,30
2018-06-13T08:30:56.408Z,30
2018-06-13T08:31:36.999Z,35
2018-06-13T08:32:17.887Z,35
2018-06-13T08:32:59.148Z,35
2018-06-13T08:33:39.314Z,35
2018-06-13T08:34:20.304Z,35
2018-06-13T08:35:01.125Z,35
2018-06-13T08:35:41.606Z,35
2018-06-13T08:36:22.168Z,35
2018-06-13T08:37:04.008Z,35
2018-06-13T08:37:44.519Z,35
2018-06-13T08:38:25.056Z,35
2018-06-13T08:39:05.600Z,35
2018-06-13T08:39:46.140Z,35
2018-06-13T08:40:26.475Z,35
2018-06-13T08:41:07.173Z,35
2018-06-13T08:41:47.530Z,35
2018-06-13T08:42:28.030Z,35
2018-06-13T08:43:08.691Z,40
2018-06-13T08:43:49.093Z,40
2018-06-13T08:44:29.929Z,40
2018-06-13T08:45:10.470Z,40
2018-06-13T08:45:52.701Z,40
2018-06-13T08:46:34.058Z,45
2018-06-13T08:47:14.822Z,45
2018-06-13T08:47:55.516Z,50
2018-06-13T08:48:36.389Z,55
2018-06-13T08:49:16.979Z,50
2018-06-13T08:49:57.515Z,50
2018-06-13T08:50:40.288Z,50
2018-06-13T08:51:22.769Z,50
2018-06-13T08:52:06.077Z,45
2018-06-13T08:52:46.894Z,45
2018-06-13T08:53:28.885Z,40
2018-06-13T08:54:09.617Z,40
2018-06-13T08:54:50.368Z,35
2018-06-13T08:55:30.910Z,35
2018-06-13T08:57:56.235Z,25
2018-06-13T08:58:37.686Z,20
2018-06-13T08:59:18.686Z,20
2018-06-13T09:00:01.109Z,20
2018-06-13T09:00:42.378Z,20
2018-06-13T09:01:24.468Z,20
2018-06-13T09:02:04.883Z,20
2018-06-13T09:02:45.711Z,20
2018-06-13T09:03:26.153Z,20
2018-06-13T09:04:08.867Z,20
2018-06-13T09:04:49.515Z,20
2018-06-13T09:05:30.568Z,20
2018-06-13T09:07:29.239Z,20
2018-06-13T09:08:09.636Z,20
2018-06-13T09:08:51.182Z,20
2018-06-13T09:09:30.956Z,20
2018-06-13T09:10:11.488Z,20
2018-06-13T09:10:52.016Z,20
2018-06-13T09:11:32.476Z,20
2018-06-13T09:12:13.653Z,15
2018-06-13T09:12:54.214Z,15
2018-06-13T09:13:36.980Z,15
2018-06-13T09:14:17.877Z,15
2018-06-13T09:14:59.447Z,15
2018-06-13T09:15:40.029Z,15
2018-06-13T09:16:20.800Z,15
2018-06-13T09:17:01.244Z,15
2018-06-13T09:17:42.292Z,15
2018-06-13T09:18:22.556Z,15
2018-06-13T09:19:03.417Z,15
2018-06-13T09:19:44.339Z,15
2018-06-13T09:20:26.154Z,15
2018-06-13T09:21:07.665Z,15
2018-06-13T09:21:48.352Z,15
2018-06-13T09:22:28.951Z,15
2018-06-13T09:23:09.459Z,15
2018-06-13T09:23:50.046Z,15
2018-06-13T09:24:31.500Z,15
2018-06-13T09:25:12.069Z,15
2018-06-13T09:25:52.833Z,15
2018-06-13T09:26:34.283Z,20
2018-06-13T09:27:14.785Z,20
2018-06-13T09:27:55.206Z,20
2018-06-13T09:28:36.591Z,20
2018-06-13T09:29:17.384Z,15
2018-06-13T09:29:57.536Z,15
2018-06-13T09:30:38.721Z,15
2018-06-13T09:31:22.643Z,15
2018-06-13T09:32:03.202Z,15
2018-06-13T09:32:44.612Z,15
2018-06-13T09:33:25.056Z,15
2018-06-13T09:34:05.837Z,15
2018-06-13T09:34:46.535Z,15
2018-06-13T09:35:27.103Z,15
2018-06-13T09:36:07.698Z,15
2018-06-13T09:36:48.483Z,15
2018-06-13T09:39:18.068Z,15
2018-06-13T09:47:49.103Z,20
2018-06-13T09:48:34.560Z,20
2018-06-13T09:49:17.484Z,20
2018-06-13T09:49:58.497Z,25
2018-06-13T09:50:40.208Z,25
2018-06-13T09:51:20.871Z,25
2018-06-13T09:52:02.628Z,30
2018-06-13T09:52:44.200Z,30
2018-06-13T09:53:26.159Z,35
2018-06-13T09:54:06.200Z,35
2018-06-13T09:54:48.755Z,35
2018-06-13T09:55:29.553Z,35
2018-06-13T09:56:14.073Z,40
2018-06-13T09:56:58.300Z,40
2018-06-13T09:57:40.573Z,40
2018-06-13T09:58:21.693Z,40
2018-06-13T09:59:02.508Z,45
2018-06-13T09:59:44.974Z,45
2018-06-13T10:00:26.206Z,50
2018-06-13T10:01:05.995Z,50
2018-06-13T10:01:47.626Z,50
2018-06-13T10:02:29.688Z,50
2018-06-13T10:03:12.336Z,50
2018-06-13T10:03:55.640Z,50
2018-06-13T10:45:24.737Z,30
2018-06-13T10:46:06.202Z,30
2018-06-13T10:46:47.144Z,30
2018-06-13T10:47:27.678Z,35
2018-06-13T10:48:08.407Z,35
2018-06-13T10:48:50.178Z,35
2018-06-13T10:52:30.654Z,35
2018-06-13T10:53:09.730Z,35
2018-06-13T10:53:50.325Z,40
2018-06-13T10:54:30.922Z,40
2018-06-13T10:55:11.945Z,40
2018-06-13T10:55:54.950Z,40
2018-06-13T10:56:37.151Z,40
2018-06-13T10:57:18.533Z,40
2018-06-13T10:57:59.638Z,40
2018-06-13T10:58:39.922Z,40
2018-06-13T10:59:21.525Z,40
2018-06-13T11:00:04.039Z,40
2018-06-13T11:00:43.647Z,40
2018-06-13T11:01:24.051Z,40
2018-06-13T11:02:05.064Z,40
2018-06-13T11:02:45.586Z,40
2018-06-13T11:03:26.111Z,40
2018-06-13T11:04:07.465Z,40
2018-06-13T11:04:47.629Z,40
2018-06-13T11:05:29.958Z,40
2018-06-13T11:06:11.095Z,40
2018-06-13T11:06:52.425Z,40
2018-06-13T11:07:33.617Z,40
2018-06-13T11:08:14.622Z,40
2018-06-13T11:08:55.764Z,45
2018-06-13T11:09:37.184Z,45
2018-06-13T11:12:06.836Z,50
2018-06-13T11:12:47.346Z,50
2018-06-13T11:13:28.753Z,50
2018-06-13T11:14:08.230Z,55
2018-06-13T11:14:49.006Z,55
2018-06-13T11:15:30.085Z,55
2018-06-13T11:16:10.508Z,60
2018-06-13T11:16:51.615Z,60
2018-06-13T11:17:32.584Z,60
2018-06-13T11:18:12.962Z,60
2018-06-13T11:18:54.174Z,65
2018-06-13T11:19:34.959Z,65
2018-06-13T11:20:15.320Z,65
2018-06-13T11:20:55.801Z,65
2018-06-13T11:21:36.708Z,65
2018-06-13T11:22:17.544Z,70
2018-06-13T11:22:58.144Z,70
2018-06-13T11:23:38.656Z,70
2018-06-13T11:24:19.158Z,70
2018-06-13T11:25:01.708Z,75
2018-06-13T11:25:43.437Z,75
2018-06-13T11:26:24.175Z,75
2018-06-13T11:27:05.312Z,75
2018-06-13T11:27:45.408Z,75
2018-06-13T11:28:26.425Z,80
2018-06-13T11:29:06.936Z,80
2018-06-13T11:29:47.522Z,80
2018-06-13T11:30:28.093Z,80
2018-06-13T11:31:09.085Z,80
2018-06-13T11:31:50.206Z,80
2018-06-13T11:32:30.839Z,80
2018-06-13T11:33:11.802Z,80
2018-06-13T11:35:49.317Z,80
2018-06-13T11:36:29.756Z,80
2018-06-13T11:37:11.252Z,75
2018-06-13T11:37:52.437Z,75
2018-06-13T11:38:34.261Z,75
2018-06-13T11:39:15.413Z,75
2018-06-13T11:39:56.776Z,75
2018-06-13T11:40:37.271Z,75
2018-06-13T11:41:17.652Z,70
2018-06-13T11:41:58.915Z,70
2018-06-13T11:42:39.413Z,70
2018-06-13T11:43:20.818Z,65
2018-06-13T11:44:00.995Z,65
2018-06-13T11:44:43.284Z,60
2018-06-13T11:45:24.041Z,55
2018-06-13T11:46:05.388Z,55
2018-06-13T11:46:47.811Z,50
2018-06-13T11:47:43.139Z,45
2018-06-13T11:48:24.405Z,45
2018-06-13T11:49:05.550Z,40
2018-06-13T11:49:46.153Z,40
2018-06-13T11:50:26.968Z,40
2018-06-13T11:53:58.775Z,40
2018-06-13T11:54:39.156Z,45
2018-06-13T11:55:19.554Z,40
2018-06-13T11:56:00.189Z,40
2018-06-13T11:56:41.014Z,35
2018-06-13T11:57:21.605Z,40
2018-06-13T11:58:02.191Z,40
2018-06-13T11:58:43.305Z,40
2018-06-13T11:59:23.425Z,40
2018-06-13T12:00:04.054Z,40
2018-06-13T12:00:44.713Z,45
2018-06-13T12:01:25.906Z,45
2018-06-13T12:02:06.591Z,45
2018-06-13T12:02:47.333Z,45
2018-06-13T12:03:27.990Z,45
2018-06-13T12:04:08.890Z,45
2018-06-13T12:04:49.441Z,45
2018-06-13T12:05:30.260Z,50
2018-06-13T12:06:10.765Z,50
2018-06-13T12:06:51.138Z,50
2018-06-13T12:07:32.372Z,50
2018-06-13T12:08:13.081Z,50
2018-06-13T12:08:54.779Z,45
2018-06-13T12:09:35.481Z,50
2018-06-13T12:10:16.039Z,50
2018-06-13T12:10:57.762Z,50
2018-06-13T12:11:38.279Z,50
2018-06-13T12:12:18.912Z,50
2018-06-13T12:12:59.528Z,50
2018-06-13T12:13:41.009Z,45
2018-06-13T12:14:21.471Z,45
2018-06-13T12:15:02.098Z,45
2018-06-13T12:15:42.490Z,45
2018-06-13T12:16:24.199Z,45
2018-06-13T12:17:04.787Z,45
2018-06-13T12:17:45.400Z,45
2018-06-13T12:18:26.526Z,45
2018-06-13T12:19:06.822Z,45
2018-06-13T12:19:48.569Z,45
2018-06-13T12:20:29.318Z,50
2018-06-13T12:21:09.981Z,50
2018-06-13T12:21:50.788Z,55
2018-06-13T12:22:31.535Z,55
2018-06-13T12:23:12.028Z,60
2018-06-13T12:23:52.498Z,60
2018-06-13T12:24:33.313Z,60
2018-06-13T12:25:14.575Z,60
2018-06-13T12:25:55.211Z,60
2018-06-13T12:26:35.571Z,60
2018-06-13T12:27:16.251Z,55
2018-06-13T12:27:56.788Z,55
2018-06-13T12:28:37.223Z,55
2018-06-13T12:29:17.653Z,55
2018-06-13T12:29:58.168Z,55
2018-06-13T12:30:38.736Z,55
2018-06-13T12:31:19.892Z,55
2018-06-13T12:32:03.256Z,50
2018-06-13T12:32:44.492Z,50
2018-06-13T12:33:26.929Z,50
2018-06-13T12:34:07.783Z,50
2018-06-13T12:34:49.168Z,50
2018-06-13T12:39:19.425Z,40
2018-06-13T12:40:12.228Z,40
2018-06-13T12:40:55.635Z,35
2018-06-13T12:41:39.285Z,40
2018-06-13T12:42:20.400Z,40
2018-06-13T12:43:01.000Z,40
2018-06-13T12:43:42.430Z,40
2018-06-13T12:44:23.843Z,45
2018-06-13T12:45:04.606Z,50
2018-06-13T12:45:45.401Z,55
2018-06-13T12:46:27.266Z,55
2018-06-13T12:47:14.905Z,60
2018-06-13T12:48:01.471Z,60
2018-06-13T12:48:41.389Z,60
2018-06-13T12:49:22.628Z,60
2018-06-13T12:50:04.111Z,60
2018-06-13T12:50:46.639Z,60
2018-06-13T12:51:30.035Z,60
2018-06-13T12:52:14.112Z,60
2018-06-13T12:52:54.306Z,60
2018-06-13T12:53:34.648Z,55
2018-06-13T12:54:16.971Z,55
2018-06-13T12:55:04.133Z,55
2018-06-13T12:55:50.343Z,55
2018-06-13T12:56:33.140Z,50
2018-06-13T12:57:16.491Z,55
2018-06-13T12:57:56.889Z,50
2018-06-13T12:58:38.659Z,50
2018-06-13T12:59:18.887Z,45
2018-06-13T12:59:59.679Z,40
2018-06-13T13:00:40.347Z,40
2018-06-13T13:01:20.667Z,40
2018-06-13T13:02:01.556Z,40
2018-06-13T13:02:42.633Z,40
2018-06-13T13:03:22.919Z,45
2018-06-13T13:04:04.017Z,45
2018-06-13T13:04:46.174Z,50
2018-06-13T13:05:26.612Z,50
2018-06-13T13:06:07.470Z,50
2018-06-13T13:06:48.646Z,50
2018-06-13T13:07:31.200Z,50
2018-06-13T13:08:15.936Z,50
2018-06-13T13:09:15.399Z,50
2018-06-13T13:09:56.960Z,50
2018-06-13T13:10:38.587Z,55
2018-06-13T13:17:42.087Z,70
2018-06-13T13:18:23.879Z,70
2018-06-13T13:19:06.105Z,70
2018-06-13T13:19:46.673Z,70
2018-06-13T13:20:27.380Z,70
2018-06-13T13:21:09.382Z,70